Time;durP1;ratioP1;P1;durP2;ratioP2;P2;SDS_P1;SDS_P2;PMS_P1;PMS_P2;Temp;Humidity;BMP_temperature;BMP_pressure;BME280_temperature;BME280_humidity;BME280_pressure;Samples;Min_cycle;Max_cycle;Signal;HPM_P1;HPM_P2
2022/01/26 00:06:37;;;;;;;37.15;25.27;;;2.70;99.90;;;;;;5021407;28;20931;-60
2022/01/26 00:09:04;;;;;;;39.08;25.08;;;2.40;99.90;;;;;;5008681;28;20189;-60
2022/01/26 00:11:33;;;;;;;38.95;24.83;;;2.20;99.90;;;;;;5022134;28;20191;-59
2022/01/26 00:14:01;;;;;;;39.45;24.20;;;1.60;99.90;;;;;;5020027;28;20213;-59
2022/01/26 00:16:35;;;;;;;42.35;27.02;;;2.20;99.90;;;;;;5016316;28;20175;-60
2022/01/26 00:19:02;;;;;;;39.90;27.60;;;2.30;99.90;;;;;;5017434;28;20502;-60
2022/01/26 00:39:45;;;;;;;47.58;26.17;;;2.40;99.90;;;;;;5019398;28;20213;-60
2022/01/26 00:42:11;;;;;;;47.88;28.27;;;2.00;99.90;;;;;;5021147;28;20269;-59
2022/01/26 00:44:42;;;;;;;41.00;26.67;;;1.50;99.90;;;;;;5026164;28;20285;-60
2022/01/26 00:47:08;;;;;;;42.67;27.00;;;2.00;99.90;;;;;;5022132;28;20183;-60
2022/01/26 00:49:33;;;;;;;45.10;26.87;;;1.80;99.90;;;;;;5018416;28;20244;-59
2022/01/26 00:51:59;;;;;;;48.10;26.57;;;1.80;99.90;;;;;;5014985;28;20209;-60
2022/01/26 00:54:27;;;;;;;44.67;26.60;;;2.70;99.90;;;;;;5010623;28;20214;-60
2022/01/26 00:56:52;;;;;;;45.88;27.58;;;2.50;99.90;;;;;;5018439;28;20438;-59
2022/01/26 00:59:18;;;;;;;39.43;26.17;;;2.70;99.90;;;;;;5022702;28;20188;-59
2022/01/26 01:01:45;;;;;;;46.47;25.65;;;2.20;99.90;;;;;;5006902;28;20616;-58
2022/01/26 01:04:11;;;;;;;50.20;28.23;;;2.30;99.90;;;;;;5008134;28;20215;-59
2022/01/26 01:06:46;;;;;;;40.13;24.40;;;2.10;99.90;;;;;;5013618;28;20210;-60
2022/01/26 01:09:12;;;;;;;44.70;26.45;;;2.30;99.90;;;;;;5025139;28;20182;-60
2022/01/26 01:11:37;;;;;;;41.77;25.70;;;2.50;99.90;;;;;;5009769;28;20180;-59
2022/01/26 01:14:03;;;;;;;49.67;29.13;;;2.40;99.90;;;;;;5009929;28;20462;-59
2022/01/26 01:16:29;;;;;;;42.90;26.70;;;2.00;99.90;;;;;;5007340;28;20440;-60
2022/01/26 01:19:05;;;;;;;48.97;28.67;;;2.40;99.90;;;;;;5009833;28;20675;-60
2022/01/26 01:27:29;;;;;;;46.55;27.55;;;1.70;99.90;;;;;;5011708;28;20190;-59
2022/01/26 01:30:09;;;;;;;47.63;25.73;;;2.30;99.90;;;;;;5010941;28;20210;-59
2022/01/26 01:33:06;;;;;;;47.75;26.75;;;2.30;99.90;;;;;;5009853;28;20183;-59
2022/01/26 01:35:21;;;;;;;55.30;28.95;;;2.30;99.90;;;;;;5015740;28;20567;-59
2022/01/26 01:37:46;;;;;;;50.15;28.38;;;2.20;99.90;;;;;;5015794;28;20178;-60
2022/01/26 01:40:13;;;;;;;44.10;25.20;;;1.90;99.90;;;;;;5016388;28;20627;-59
2022/01/26 01:42:38;;;;;;;47.60;27.05;;;2.00;99.90;;;;;;5023110;28;20277;-59
2022/01/26 01:45:04;;;;;;;54.07;28.30;;;2.40;99.90;;;;;;5025509;28;20309;-60
2022/01/26 01:47:30;;;;;;;47.42;26.73;;;2.20;99.90;;;;;;5006378;28;20274;-60
2022/01/26 01:49:56;;;;;;;44.97;25.70;;;1.80;99.90;;;;;;5018982;28;20289;-60
2022/01/26 01:52:22;;;;;;;44.97;25.90;;;1.90;99.90;;;;;;5017886;28;20194;-60
2022/01/26 01:54:52;;;;;;;47.85;26.73;;;1.40;99.90;;;;;;5015480;28;20202;-60
2022/01/26 01:57:23;;;;;;;42.22;23.08;;;1.40;99.90;;;;;;5009557;28;20196;-60
2022/01/26 01:59:49;;;;;;;45.72;25.30;;;1.30;99.90;;;;;;5025508;28;20190;-60
2022/01/26 02:02:15;;;;;;;44.85;25.35;;;1.80;99.90;;;;;;5015413;28;20201;-60
2022/01/26 02:04:41;;;;;;;46.37;24.97;;;1.90;99.90;;;;;;5020554;28;20214;-60
2022/01/26 02:07:07;;;;;;;39.97;23.50;;;2.20;99.90;;;;;;5020058;28;20241;-60
2022/01/26 02:09:32;;;;;;;44.75;25.35;;;1.90;99.90;;;;;;5012575;28;20194;-59
2022/01/26 02:12:01;;;;;;;39.80;24.03;;;1.50;99.90;;;;;;5015860;28;20190;-59
2022/01/26 02:14:35;;;;;;;40.22;25.05;;;2.10;99.90;;;;;;5016552;28;20215;-58
2022/01/26 02:17:16;;;;;;;42.70;24.83;;;1.50;99.90;;;;;;5020636;28;20626;-59
2022/01/26 03:03:18;;;;;;;35.78;20.92;;;1.50;99.90;;;;;;5016982;28;20293;-59
2022/01/26 03:05:59;;;;;;;30.75;20.83;;;1.40;99.90;;;;;;5018243;28;20234;-60
2022/01/26 03:08:35;;;;;;;31.50;19.90;;;1.90;99.90;;;;;;5015030;28;20190;-60
2022/01/26 03:11:13;;;;;;;28.70;20.10;;;1.20;99.90;;;;;;5019063;28;20647;-59
2022/01/26 03:13:48;;;;;;;31.40;18.70;;;1.40;99.90;;;;;;5014257;28;20608;-60
2022/01/26 03:16:20;;;;;;;32.58;19.77;;;2.00;99.90;;;;;;5012742;28;20324;-59
2022/01/26 03:22:16;;;;;;;30.10;19.05;;;1.80;99.90;;;;;;5022446;28;20194;-59
2022/01/26 03:29:54;;;;;;;24.85;17.02;;;1.70;99.90;;;;;;5017896;28;20244;-59
2022/01/26 03:35:13;;;;;;;26.30;15.52;;;1.70;99.90;;;;;;5015805;28;20221;-59
2022/01/26 03:37:39;;;;;;;21.20;14.93;;;1.90;99.90;;;;;;5020072;28;20516;-60
2022/01/26 03:40:13;;;;;;;20.00;14.63;;;1.90;99.90;;;;;;5018692;28;20175;-60
2022/01/26 03:42:38;;;;;;;20.75;14.43;;;1.70;99.90;;;;;;5023468;28;20186;-60
2022/01/26 03:45:04;;;;;;;23.83;14.37;;;1.70;99.90;;;;;;5011779;28;20218;-59
2022/01/26 03:47:30;;;;;;;23.40;15.15;;;1.70;99.90;;;;;;5008978;28;20862;-58
2022/01/26 03:49:55;;;;;;;23.07;15.50;;;1.30;99.90;;;;;;5019431;28;20278;-59
2022/01/26 03:52:21;;;;;;;24.13;15.17;;;1.10;99.90;;;;;;5022258;28;20754;-59
2022/01/26 03:54:47;;;;;;;28.27;15.30;;;1.10;99.90;;;;;;5017296;28;20625;-59
2022/01/26 03:57:12;;;;;;;23.43;15.20;;;1.20;99.90;;;;;;5016020;28;20192;-60
2022/01/26 03:59:38;;;;;;;26.03;15.67;;;1.50;99.90;;;;;;5015241;28;20194;-60
2022/01/26 04:02:05;;;;;;;26.57;15.87;;;1.40;99.90;;;;;;5012797;28;20189;-59
2022/01/26 04:04:36;;;;;;;31.38;16.10;;;1.50;99.90;;;;;;5020858;28;20232;-59
2022/01/26 04:07:02;;;;;;;31.38;17.10;;;1.00;99.90;;;;;;5014541;28;20229;-59
2022/01/26 04:09:28;;;;;;;31.90;17.55;;;1.30;99.90;;;;;;5020731;28;20193;-59
2022/01/26 04:11:53;;;;;;;28.00;16.37;;;0.50;99.90;;;;;;5019746;28;21005;-59
2022/01/26 04:14:23;;;;;;;30.17;16.00;;;1.10;99.90;;;;;;5024418;28;20701;-60
2022/01/26 04:16:49;;;;;;;29.33;16.48;;;1.40;99.90;;;;;;5014099;28;20174;-58
2022/01/26 04:19:15;;;;;;;31.57;16.07;;;0.50;99.90;;;;;;5021367;28;20193;-60
2022/01/26 04:22:10;;;;;;;29.15;16.77;;;1.00;99.90;;;;;;5019241;28;20184;-59
2022/01/26 04:24:44;;;;;;;32.05;18.08;;;1.10;99.90;;;;;;5021690;28;20702;-58
2022/01/26 04:27:22;;;;;;;33.55;18.50;;;1.50;99.90;;;;;;5014363;28;20235;-60
2022/01/26 04:29:49;;;;;;;29.42;17.65;;;1.30;99.90;;;;;;5018588;28;20178;-59
2022/01/26 04:32:16;;;;;;;30.17;17.15;;;1.10;99.90;;;;;;5006334;28;22210;-58
2022/01/26 04:34:42;;;;;;;31.90;17.98;;;0.90;99.90;;;;;;5015205;28;20214;-59
2022/01/26 04:37:42;;;;;;;30.00;17.85;;;1.00;99.90;;;;;;5016933;28;20272;-59
2022/01/26 04:40:05;;;;;;;36.60;18.45;;;0.50;99.90;;;;;;5012057;28;20241;-58
2022/01/26 04:45:12;;;;;;;31.35;17.70;;;1.00;99.90;;;;;;5022503;28;20225;-60
2022/01/26 04:47:39;;;;;;;37.80;19.70;;;1.00;99.90;;;;;;5007273;28;20187;-59
2022/01/26 04:50:06;;;;;;;38.83;19.77;;;1.20;99.90;;;;;;5020925;28;20187;-58
2022/01/26 04:52:32;;;;;;;33.85;18.63;;;0.70;99.90;;;;;;5021152;28;20261;-58
2022/01/26 04:54:58;;;;;;;35.73;19.40;;;0.80;99.90;;;;;;5023898;28;20214;-59
2022/01/26 04:57:23;;;;;;;32.77;19.17;;;1.30;99.90;;;;;;5014071;28;22168;-60
2022/01/26 04:59:49;;;;;;;35.00;18.70;;;0.50;99.90;;;;;;5018538;28;20192;-58
2022/01/26 05:02:15;;;;;;;36.70;20.47;;;1.40;99.90;;;;;;5013606;28;20711;-60
2022/01/26 05:04:40;;;;;;;42.10;20.73;;;1.40;99.90;;;;;;5016881;28;20226;-60
2022/01/26 05:07:06;;;;;;;31.83;18.47;;;1.30;99.90;;;;;;5019133;28;20190;-59
2022/01/26 05:09:31;;;;;;;41.63;19.20;;;1.10;99.90;;;;;;5017135;28;20187;-59
2022/01/26 05:11:57;;;;;;;31.77;20.27;;;1.20;99.90;;;;;;5022146;28;20238;-60
2022/01/26 05:14:23;;;;;;;35.97;18.63;;;1.20;99.90;;;;;;5019430;28;20210;-59
2022/01/26 05:16:49;;;;;;;31.53;17.47;;;1.40;99.90;;;;;;5013617;28;20191;-59
2022/01/26 05:19:14;;;;;;;37.30;19.47;;;1.40;99.90;;;;;;5013990;28;20206;-60
2022/01/26 05:21:41;;;;;;;35.90;19.20;;;0.80;99.90;;;;;;5010990;28;22297;-58
2022/01/26 05:24:08;;;;;;;33.40;19.40;;;1.40;99.90;;;;;;5013085;28;20294;-60
2022/01/26 05:26:33;;;;;;;39.85;21.55;;;1.20;99.90;;;;;;5023126;28;20301;-60
2022/01/26 05:28:59;;;;;;;35.53;19.70;;;0.60;99.90;;;;;;5020277;28;20297;-60
2022/01/26 05:31:25;;;;;;;38.90;19.43;;;1.00;99.90;;;;;;5011914;28;20218;-59
2022/01/26 05:33:50;;;;;;;32.63;19.13;;;1.00;99.90;;;;;;5013500;28;20328;-60
2022/01/26 05:36:16;;;;;;;30.70;18.47;;;0.60;99.90;;;;;;5021418;28;20449;-59
2022/01/26 05:38:42;;;;;;;34.30;18.03;;;1.10;99.90;;;;;;5024962;28;20210;-59
2022/01/26 05:41:10;;;;;;;36.40;19.63;;;0.50;99.90;;;;;;5017783;28;20265;-59
2022/01/26 05:43:36;;;;;;;31.63;18.65;;;1.00;99.90;;;;;;5026195;28;20530;-59
2022/01/26 05:46:07;;;;;;;30.57;19.07;;;0.70;99.90;;;;;;5012441;28;20838;-60
2022/01/26 05:48:35;;;;;;;34.70;16.95;;;1.30;99.90;;;;;;5018124;28;20640;-59
2022/01/26 05:51:06;;;;;;;38.50;20.05;;;0.80;99.90;;;;;;5023780;28;20203;-60
2022/01/26 05:53:33;;;;;;;35.80;18.88;;;1.20;99.90;;;;;;5019024;28;20656;-59
2022/01/26 05:55:58;;;;;;;32.00;18.05;;;1.50;99.90;;;;;;5015989;28;20249;-60
2022/01/26 05:58:24;;;;;;;32.93;19.30;;;0.60;99.90;;;;;;5012277;28;20191;-60
2022/01/26 06:00:50;;;;;;;35.43;18.80;;;1.30;99.90;;;;;;5023084;28;20283;-59
2022/01/26 06:03:16;;;;;;;38.10;19.17;;;1.50;99.90;;;;;;5019886;28;21011;-59
2022/01/26 06:05:42;;;;;;;31.05;18.05;;;1.30;99.90;;;;;;5020175;28;20200;-59
2022/01/26 06:08:07;;;;;;;33.77;18.63;;;0.70;99.90;;;;;;5025660;28;20174;-59
2022/01/26 06:10:34;;;;;;;36.00;18.97;;;1.30;99.90;;;;;;5023631;28;20190;-59
2022/01/26 06:12:59;;;;;;;37.10;19.02;;;1.50;99.90;;;;;;5024040;28;20439;-59
2022/01/26 06:15:25;;;;;;;33.33;17.87;;;1.50;99.90;;;;;;5016718;28;20179;-61
2022/01/26 06:17:50;;;;;;;33.53;19.93;;;1.20;99.90;;;;;;5012618;28;20186;-59
2022/01/26 06:20:16;;;;;;;36.53;19.40;;;1.00;99.90;;;;;;5019647;28;20555;-59
2022/01/26 06:22:42;;;;;;;33.30;18.87;;;0.80;99.90;;;;;;5019774;28;20191;-58
2022/01/26 06:25:08;;;;;;;32.67;18.13;;;0.70;99.90;;;;;;5020600;28;20716;-58
2022/01/26 06:27:36;;;;;;;39.10;20.98;;;1.40;99.90;;;;;;5012114;28;20186;-59
2022/01/26 06:30:07;;;;;;;34.88;19.27;;;1.30;99.90;;;;;;5019070;28;20183;-58
2022/01/26 06:32:33;;;;;;;35.42;18.85;;;1.40;99.90;;;;;;5017763;28;20637;-59
2022/01/26 06:34:59;;;;;;;29.02;16.92;;;1.20;99.90;;;;;;5020831;28;20575;-59
2022/01/26 06:37:25;;;;;;;35.67;19.20;;;1.30;99.90;;;;;;5020355;28;20189;-59
2022/01/26 06:39:50;;;;;;;29.77;16.20;;;1.30;99.90;;;;;;5022819;28;20449;-59
2022/01/26 06:42:20;;;;;;;27.00;16.50;;;1.50;99.90;;;;;;5018663;28;20214;-59
2022/01/26 06:45:14;;;;;;;30.13;17.35;;;1.40;99.90;;;;;;5016526;28;20210;-59
2022/01/26 06:50:07;;;;;;;28.73;16.90;;;1.00;99.90;;;;;;5021833;28;20185;-59
2022/01/26 06:52:32;;;;;;;33.53;19.30;;;1.80;99.90;;;;;;5026773;28;20206;-59
2022/01/26 06:54:58;;;;;;;32.13;17.60;;;1.60;99.90;;;;;;5013601;28;20675;-59
2022/01/26 06:57:23;;;;;;;30.73;18.50;;;1.40;99.90;;;;;;5017831;28;20192;-59
2022/01/26 06:59:49;;;;;;;28.57;16.90;;;1.50;99.90;;;;;;5023143;28;20178;-59
2022/01/26 07:02:14;;;;;;;28.53;15.73;;;0.80;99.90;;;;;;5006385;28;20199;-60
2022/01/26 07:04:40;;;;;;;29.80;15.37;;;1.40;99.90;;;;;;5010154;28;20257;-62
2022/01/26 07:07:06;;;;;;;28.53;17.40;;;1.00;99.90;;;;;;5008116;28;20628;-63
2022/01/26 07:09:31;;;;;;;25.87;16.97;;;1.40;99.90;;;;;;5017390;28;20197;-61
2022/01/26 07:11:57;;;;;;;29.53;16.90;;;1.30;99.90;;;;;;5017823;28;20225;-62
2022/01/26 07:19:46;;;;;;;28.07;16.40;;;1.40;99.90;;;;;;5014305;28;20210;-60
2022/01/26 07:20:22;;;;;;;31.88;18.33;;;1.10;99.90;;;;;;5018229;28;20193;-60
2022/01/26 07:22:40;;;;;;;23.85;16.10;;;1.20;99.90;;;;;;5018352;28;20648;-60
2022/01/26 07:25:06;;;;;;;28.90;16.03;;;1.50;99.90;;;;;;5011595;28;20225;-60
2022/01/26 07:27:32;;;;;;;29.37;16.30;;;1.30;99.90;;;;;;5018054;28;20241;-61
2022/01/26 07:29:59;;;;;;;28.63;16.60;;;0.60;99.90;;;;;;5019909;28;20441;-62
2022/01/26 07:32:26;;;;;;;27.85;15.63;;;1.40;99.90;;;;;;5019547;28;20237;-60
2022/01/26 07:34:52;;;;;;;27.70;16.25;;;1.30;99.90;;;;;;5013068;28;20199;-61
2022/01/26 07:37:20;;;;;;;24.57;15.10;;;1.60;99.90;;;;;;5012698;28;20183;-60
2022/01/26 07:40:00;;;;;;;25.77;16.50;;;1.50;99.90;;;;;;5010442;28;20265;-61
2022/01/26 07:42:25;;;;;;;28.55;16.60;;;1.70;99.90;;;;;;5011846;28;20194;-54
2022/01/26 07:44:51;;;;;;;29.13;16.90;;;1.10;99.90;;;;;;5012840;28;20206;-62
2022/01/26 07:47:16;;;;;;;29.13;17.30;;;1.70;99.90;;;;;;5011723;28;20191;-63
2022/01/26 07:49:42;;;;;;;25.10;16.37;;;1.80;99.90;;;;;;5018808;28;20559;-64
2022/01/26 07:52:08;;;;;;;31.23;18.43;;;1.60;99.90;;;;;;5018828;28;20593;-63
2022/01/26 07:54:34;;;;;;;29.70;16.83;;;1.80;99.90;;;;;;5015297;28;20763;-63
2022/01/26 07:57:01;;;;;;;28.07;18.10;;;1.00;99.90;;;;;;5020864;28;20941;-65
2022/01/26 07:59:27;;;;;;;29.30;16.60;;;1.50;99.90;;;;;;5011345;28;20450;-66
2022/01/26 08:01:53;;;;;;;33.42;17.13;;;1.90;99.90;;;;;;5010485;28;20197;-67
2022/01/26 08:04:19;;;;;;;29.73;18.67;;;1.20;99.90;;;;;;5010888;28;20227;-64
2022/01/26 08:06:44;;;;;;;30.70;18.47;;;1.30;99.90;;;;;;5017891;28;20596;-64
2022/01/26 08:09:11;;;;;;;30.10;17.40;;;1.40;99.90;;;;;;5015563;28;20441;-66
2022/01/26 08:11:36;;;;;;;33.47;17.95;;;1.50;99.90;;;;;;5016150;28;20822;-60
2022/01/26 08:14:02;;;;;;;32.13;18.93;;;1.10;99.90;;;;;;5013140;28;20222;-60
2022/01/26 08:16:28;;;;;;;28.60;17.70;;;1.30;99.90;;;;;;5012464;28;20202;-63
2022/01/26 08:18:54;;;;;;;34.13;18.10;;;1.90;99.90;;;;;;5025427;28;20453;-63
2022/01/26 08:21:19;;;;;;;27.53;17.30;;;1.80;99.90;;;;;;5013626;28;20540;-62
2022/01/26 08:23:47;;;;;;;42.00;25.13;;;1.50;99.90;;;;;;5013110;28;20214;-61
2022/01/26 08:26:13;;;;;;;33.88;20.95;;;1.40;99.90;;;;;;5011430;28;20727;-61
2022/01/26 08:28:42;;;;;;;32.20;20.30;;;1.50;99.90;;;;;;5012081;28;20182;-61
2022/01/26 08:31:08;;;;;;;32.08;18.85;;;1.80;99.90;;;;;;5010178;28;20672;-61
2022/01/26 08:33:33;;;;;;;36.20;19.27;;;1.50;99.90;;;;;;5010485;28;20203;-62
2022/01/26 08:35:59;;;;;;;27.50;18.80;;;1.70;99.90;;;;;;5015438;28;20269;-62
2022/01/26 08:38:26;;;;;;;33.63;19.73;;;1.70;99.90;;;;;;5023936;28;20922;-61
2022/01/26 08:40:52;;;;;;;25.65;17.05;;;1.80;99.90;;;;;;5010267;28;20648;-62
2022/01/26 08:43:17;;;;;;;33.70;17.23;;;1.40;99.90;;;;;;5009726;28;20222;-61
2022/01/26 08:45:43;;;;;;;31.70;19.40;;;1.30;99.90;;;;;;5017320;28;20575;-62
2022/01/26 08:48:09;;;;;;;35.67;19.40;;;2.00;99.90;;;;;;5013979;28;20249;-62
2022/01/26 08:50:34;;;;;;;29.63;18.13;;;1.20;99.90;;;;;;5013686;28;20191;-61
2022/01/26 08:53:00;;;;;;;34.23;16.70;;;1.90;99.90;;;;;;5017543;28;20279;-65
2022/01/26 08:55:26;;;;;;;33.72;18.50;;;1.20;99.90;;;;;;5010731;28;20194;-65
2022/01/26 08:57:52;;;;;;;31.13;17.73;;;1.40;99.90;;;;;;5010666;28;20552;-65
2022/01/26 09:00:18;;;;;;;30.80;18.23;;;1.20;99.90;;;;;;5011291;28;20442;-60
2022/01/26 09:02:44;;;;;;;30.10;17.50;;;1.10;99.90;;;;;;5012574;28;20193;-64
2022/01/26 09:05:10;;;;;;;25.35;16.55;;;1.80;99.90;;;;;;5014508;28;20483;-63
2022/01/26 09:07:37;;;;;;;32.20;17.23;;;1.60;99.90;;;;;;5016571;28;20206;-62
2022/01/26 09:10:05;;;;;;;30.75;17.50;;;1.80;99.90;;;;;;5010751;28;20187;-60
2022/01/26 09:12:33;;;;;;;30.73;19.50;;;1.80;99.90;;;;;;5017501;28;20671;-60
2022/01/26 09:15:03;;;;;;;33.80;19.35;;;1.70;99.90;;;;;;5013556;28;20211;-59
2022/01/26 09:17:31;;;;;;;35.10;19.88;;;1.60;99.90;;;;;;5008650;28;20182;-59
2022/01/26 09:20:00;;;;;;;34.67;18.58;;;1.10;99.90;;;;;;5008707;28;20172;-59
2022/01/26 09:22:26;;;;;;;33.45;17.90;;;1.50;99.90;;;;;;5010758;28;20187;-60
2022/01/26 09:24:52;;;;;;;40.88;20.30;;;1.70;99.90;;;;;;5012835;28;20209;-62
2022/01/26 09:27:17;;;;;;;35.83;18.60;;;1.70;99.90;;;;;;5014712;28;20183;-62
2022/01/26 09:29:45;;;;;;;34.63;19.20;;;2.10;99.90;;;;;;5016716;28;20461;-59
2022/01/26 09:32:11;;;;;;;36.85;19.33;;;1.80;99.90;;;;;;5008574;28;20196;-60
2022/01/26 09:34:38;;;;;;;33.15;17.98;;;2.20;99.90;;;;;;5012120;28;20199;-64
2022/01/26 09:37:06;;;;;;;28.13;16.67;;;1.70;99.90;;;;;;5014087;28;20214;-62
2022/01/26 09:39:32;;;;;;;33.72;19.40;;;1.10;99.90;;;;;;5014049;28;20195;-62
2022/01/26 09:41:58;;;;;;;29.95;16.88;;;1.70;99.90;;;;;;5011176;28;20210;-69
2022/01/26 09:44:24;;;;;;;29.67;17.63;;;1.50;99.90;;;;;;5018044;28;20961;-62
2022/01/26 09:46:50;;;;;;;29.43;18.23;;;1.90;99.90;;;;;;5011729;28;20218;-63
2022/01/26 09:49:17;;;;;;;31.58;16.58;;;2.10;99.90;;;;;;5014058;28;20274;-63
2022/01/26 09:51:44;;;;;;;27.70;16.30;;;2.30;99.90;;;;;;5015081;28;22364;-63
2022/01/26 09:54:15;;;;;;;28.55;17.08;;;1.90;99.90;;;;;;5012301;28;20195;-60
2022/01/26 09:56:42;;;;;;;30.58;17.05;;;1.30;99.90;;;;;;5004987;28;20614;-58
2022/01/26 09:59:08;;;;;;;30.50;18.23;;;1.90;99.90;;;;;;5017547;28;20179;-57
2022/01/26 10:01:50;;;;;;;33.73;18.33;;;1.60;99.90;;;;;;5016743;28;20197;-60
2022/01/26 10:04:24;;;;;;;30.00;18.58;;;2.10;99.90;;;;;;5011403;28;20485;-59
2022/01/26 10:07:06;;;;;;;27.17;16.92;;;2.00;99.90;;;;;;5023091;28;20210;-60
2022/01/26 10:17:44;;;;;;;30.60;16.83;;;2.60;99.90;;;;;;5007491;28;20191;-63
2022/01/26 10:20:14;;;;;;;29.88;16.70;;;2.70;99.90;;;;;;5015328;28;20287;-63
2022/01/26 10:22:42;;;;;;;26.23;15.30;;;2.10;99.90;;;;;;5019355;28;20248;-62
2022/01/26 10:25:17;;;;;;;28.90;17.42;;;2.20;99.90;;;;;;5011299;28;20211;-62
2022/01/26 10:27:53;;;;;;;27.63;15.75;;;2.70;99.90;;;;;;5011734;28;20202;-62
2022/01/26 10:30:20;;;;;;;24.50;15.27;;;2.60;99.90;;;;;;5021319;28;20187;-62
2022/01/26 10:32:47;;;;;;;25.55;15.52;;;2.90;99.90;;;;;;5012965;28;20190;-64
2022/01/26 10:35:14;;;;;;;23.70;15.70;;;2.40;99.90;;;;;;5021202;28;20676;-65
2022/01/26 10:37:58;;;;;;;24.58;15.63;;;2.90;99.90;;;;;;5024929;28;20652;-65
2022/01/26 10:40:26;;;;;;;24.95;16.00;;;2.90;99.90;;;;;;5015884;28;20183;-65
2022/01/26 10:43:05;;;;;;;22.40;14.00;;;2.90;99.90;;;;;;5005731;28;20225;-61
2022/01/26 10:45:36;;;;;;;21.70;13.30;;;2.80;99.90;;;;;;5015224;28;20210;-59
2022/01/26 10:48:24;;;;;;;24.63;14.35;;;3.00;99.90;;;;;;5017436;28;20176;-61
2022/01/26 10:53:45;;;;;;;21.83;13.57;;;2.60;99.90;;;;;;5013735;28;20265;-60
2022/01/26 10:56:10;;;;;;;25.17;14.68;;;2.80;99.90;;;;;;5015696;28;20191;-60
2022/01/26 10:58:36;;;;;;;24.17;14.90;;;3.20;99.90;;;;;;5018766;28;20187;-59
2022/01/26 11:01:02;;;;;;;23.60;15.17;;;2.30;99.90;;;;;;5015151;28;20270;-61
2022/01/26 11:03:28;;;;;;;26.05;14.98;;;2.10;99.90;;;;;;5015116;28;20631;-61
2022/01/26 11:05:54;;;;;;;24.38;16.30;;;2.10;99.90;;;;;;5016268;28;20297;-57
2022/01/26 11:08:22;;;;;;;30.87;15.40;;;3.10;99.90;;;;;;5022056;28;20600;-57
2022/01/26 11:10:48;;;;;;;27.63;16.27;;;2.30;99.90;;;;;;5010424;28;20171;-57
2022/01/26 11:13:28;;;;;;;21.63;14.43;;;2.80;99.90;;;;;;5005261;28;20249;-56
2022/01/26 11:16:05;;;;;;;31.38;15.30;;;2.60;99.90;;;;;;5013039;28;20848;-54
2022/01/26 11:18:33;;;;;;;24.50;14.98;;;2.60;99.90;;;;;;5020935;28;20190;-58
2022/01/26 11:20:58;;;;;;;25.25;16.05;;;3.10;99.90;;;;;;5013351;28;20178;-58
2022/01/26 11:23:35;;;;;;;23.20;15.17;;;2.20;99.90;;;;;;5021147;28;21013;-58
2022/01/26 11:26:01;;;;;;;26.50;16.55;;;2.50;99.90;;;;;;5014748;28;20319;-57
2022/01/26 11:28:28;;;;;;;27.10;16.40;;;2.40;99.90;;;;;;5010125;28;20227;-58
2022/01/26 11:30:59;;;;;;;27.23;16.13;;;2.80;99.90;;;;;;5013070;28;20532;-62
2022/01/26 11:33:28;;;;;;;28.27;16.85;;;2.80;99.90;;;;;;5013363;28;20199;-62
2022/01/26 11:35:56;;;;;;;31.27;17.63;;;2.90;99.90;;;;;;5011263;28;20175;-63
2022/01/26 11:46:58;;;;;;;28.20;17.27;;;2.90;99.90;;;;;;5012126;28;20250;-61
2022/01/26 11:49:33;;;;;;;28.63;16.92;;;3.20;99.90;;;;;;5025217;28;20231;-59
2022/01/26 11:51:59;;;;;;;30.95;19.73;;;2.60;99.90;;;;;;5020057;28;20265;-60
2022/01/26 11:54:39;;;;;;;31.90;19.10;;;3.20;99.90;;;;;;5017497;28;20295;-62
2022/01/26 11:57:12;;;;;;;36.58;20.45;;;3.50;99.90;;;;;;5010931;28;20195;-62
2022/01/26 11:59:45;;;;;;;28.60;17.30;;;3.10;99.90;;;;;;5016057;28;20261;-61
2022/01/26 12:02:38;;;;;;;36.00;18.85;;;3.30;99.90;;;;;;5003642;28;20195;-63
2022/01/26 12:05:09;;;;;;;34.47;18.27;;;3.30;99.90;;;;;;5007528;28;20211;-66
2022/01/26 12:07:45;;;;;;;30.75;17.67;;;3.20;99.90;;;;;;5014322;28;20179;-66
2022/01/26 12:10:36;;;;;;;32.70;19.88;;;3.20;99.90;;;;;;5013743;28;20187;-62
2022/01/26 12:13:06;;;;;;;33.03;20.02;;;2.60;99.90;;;;;;5012392;28;20209;-63
2022/01/26 12:15:47;;;;;;;30.15;17.02;;;3.30;99.90;;;;;;5011913;28;20500;-59
2022/01/26 12:18:25;;;;;;;39.78;19.25;;;3.10;99.90;;;;;;5009768;28;20659;-63
2022/01/26 12:33:02;;;;;;;28.35;16.42;;;2.90;99.90;;;;;;5010839;28;20197;-60
2022/01/26 12:41:19;;;;;;;26.25;16.50;;;3.10;99.90;;;;;;5009821;28;20203;-60
2022/01/26 12:43:56;;;;;;;31.02;15.55;;;2.80;99.90;;;;;;5021948;28;20205;-62
2022/01/26 12:46:32;;;;;;;31.88;15.88;;;3.00;99.90;;;;;;5013488;28;20611;-61
2022/01/26 12:49:10;;;;;;;30.67;16.92;;;2.90;99.90;;;;;;5009133;28;20524;-61
2022/01/26 12:51:43;;;;;;;24.00;15.13;;;3.20;99.90;;;;;;5020437;28;20210;-60
2022/01/26 12:54:10;;;;;;;26.05;16.40;;;2.60;99.90;;;;;;5007113;28;20241;-62
2022/01/26 12:56:36;;;;;;;25.63;14.90;;;3.00;99.90;;;;;;5012008;28;20221;-61
2022/01/26 12:59:10;;;;;;;27.00;16.30;;;3.50;99.90;;;;;;5025408;28;20245;-61
2022/01/26 13:01:36;;;;;;;22.98;15.13;;;3.10;99.90;;;;;;5011836;28;20186;-62
2022/01/26 13:04:04;;;;;;;29.38;16.52;;;2.70;99.90;;;;;;5017030;28;20248;-57
2022/01/26 13:06:34;;;;;;;26.40;15.30;;;3.20;99.90;;;;;;5013775;28;20246;-62
2022/01/26 13:09:14;;;;;;;29.08;17.05;;;2.80;99.90;;;;;;5012684;28;20671;-62
2022/01/26 13:11:40;;;;;;;28.65;15.32;;;2.90;99.90;;;;;;5011960;28;20183;-63
2022/01/26 13:14:21;;;;;;;29.93;17.20;;;2.80;99.90;;;;;;5014709;28;20664;-58
2022/01/26 13:17:17;;;;;;;29.83;16.17;;;2.60;99.90;;;;;;5010107;28;20680;-59
2022/01/26 13:25:32;;;;;;;27.77;17.02;;;2.50;99.90;;;;;;5008294;28;20226;-61
2022/01/26 13:28:14;;;;;;;25.55;15.43;;;2.70;99.90;;;;;;5009356;28;20214;-61
2022/01/26 13:31:17;;;;;;;24.52;14.48;;;3.50;99.90;;;;;;5007963;28;20205;-62
2022/01/26 13:39:43;;;;;;;23.02;14.07;;;2.80;99.90;;;;;;5022924;28;20674;-60
2022/01/26 13:44:55;;;;;;;25.05;16.30;;;2.60;99.90;;;;;;5004256;28;20257;-59
2022/01/26 14:00:09;;;;;;;24.38;15.40;;;2.90;99.90;;;;;;5022100;28;20186;-60
2022/01/26 14:02:37;;;;;;;32.45;16.48;;;2.90;99.90;;;;;;5014461;28;20218;-60
2022/01/26 14:05:04;;;;;;;27.67;17.10;;;2.50;99.90;;;;;;5013770;28;20218;-60
2022/01/26 14:07:29;;;;;;;27.92;16.67;;;2.60;99.90;;;;;;5020652;28;20183;-59
2022/01/26 14:09:55;;;;;;;27.50;14.50;;;2.70;99.90;;;;;;5028696;28;20527;-62
2022/01/26 14:12:26;;;;;;;25.07;14.50;;;2.60;99.90;;;;;;5018951;28;20206;-62
2022/01/26 14:14:55;;;;;;;27.17;16.20;;;2.90;99.90;;;;;;5013901;28;20294;-63
2022/01/26 14:17:37;;;;;;;25.67;15.88;;;3.00;99.90;;;;;;5017038;28;20660;-63
2022/01/26 14:20:12;;;;;;;23.15;14.10;;;2.90;99.90;;;;;;5025885;28;20190;-63
2022/01/26 14:22:59;;;;;;;28.45;15.55;;;2.80;99.90;;;;;;5017253;28;20210;-62
2022/01/26 14:25:28;;;;;;;23.48;13.80;;;2.50;99.90;;;;;;5022819;28;20214;-61
2022/01/26 14:27:59;;;;;;;22.02;13.32;;;2.80;99.90;;;;;;5018464;28;20179;-62
2022/01/26 14:51:48;;;;;;;18.27;11.77;;;2.40;99.90;;;;;;5019766;28;20237;-63
2022/01/26 14:54:22;;;;;;;24.98;13.75;;;1.80;99.90;;;;;;5018692;28;20289;-63
2022/01/26 15:32:53;;;;;;;23.20;13.15;;;2.30;99.90;;;;;;5008406;28;20681;-62
2022/01/26 15:34:56;;;;;;;20.55;12.73;;;2.00;99.90;;;;;;5011787;28;20668;-61
2022/01/26 15:40:26;;;;;;;24.70;14.55;;;1.90;99.90;;;;;;5006903;28;20576;-56
2022/01/26 16:04:41;;;;;;;23.55;13.82;;;1.90;99.90;;;;;;5013842;28;20719;-55
2022/01/26 16:12:53;;;;;;;19.60;13.60;;;2.00;99.90;;;;;;5009000;28;20248;-55
2022/01/26 16:21:04;;;;;;;23.35;13.68;;;1.20;99.90;;;;;;5012171;28;20191;-55
2022/01/26 18:38:44;;;;;;;30.20;17.45;;;1.90;99.90;;;;;;5018505;28;20261;-56
2022/01/26 18:49:37;;;;;;;29.27;17.02;;;2.40;99.90;;;;;;5023613;28;21471;-65
2022/01/26 18:52:04;;;;;;;28.27;16.08;;;2.30;99.90;;;;;;5018092;28;20210;-65
2022/01/26 18:54:36;;;;;;;35.03;17.33;;;2.20;99.90;;;;;;5014585;28;20260;-66
2022/01/26 18:57:05;;;;;;;35.60;18.38;;;2.00;99.90;;;;;;5014376;28;20285;-58
2022/01/26 18:59:31;;;;;;;30.60;16.38;;;2.00;99.90;;;;;;5024044;28;20219;-59
2022/01/26 19:01:58;;;;;;;33.47;16.30;;;2.10;99.90;;;;;;5013551;28;20342;-58
2022/01/26 19:04:33;;;;;;;25.58;15.70;;;1.60;99.90;;;;;;5020547;28;20472;-58
2022/01/26 19:06:59;;;;;;;29.70;15.93;;;1.60;99.90;;;;;;5019602;28;20595;-58
2022/01/26 19:09:28;;;;;;;32.40;16.77;;;1.90;99.90;;;;;;5013627;28;20183;-57
2022/01/26 19:11:56;;;;;;;31.63;16.08;;;1.60;99.90;;;;;;5012696;28;20525;-57
2022/01/26 19:14:25;;;;;;;29.10;16.65;;;1.60;99.90;;;;;;5016622;28;20305;-57
2022/01/26 19:17:02;;;;;;;34.30;18.33;;;1.90;99.90;;;;;;5012655;28;20278;-57
2022/01/26 19:19:43;;;;;;;27.65;15.90;;;1.70;99.90;;;;;;5017015;28;20187;-57